createdAt,value
2018-04-01T00:01:54.327Z,25.73
2018-04-01T00:04:21.272Z,27.27
2018-04-01T00:06:48.233Z,25.00
2018-04-01T00:09:15.179Z,25.90
2018-04-01T00:11:42.138Z,26.33
2018-04-01T00:14:09.848Z,24.63
2018-04-01T00:16:36.858Z,25.92
2018-04-01T00:19:03.865Z,25.20
2018-04-01T00:21:30.810Z,25.10
2018-04-01T00:23:57.753Z,25.95
2018-04-01T00:26:24.706Z,23.30
2018-04-01T00:28:51.686Z,24.55
2018-04-01T00:31:18.654Z,22.30
2018-04-01T00:33:45.618Z,22.85
2018-04-01T00:36:12.622Z,23.70
2018-04-01T00:38:39.611Z,22.92
2018-04-01T00:41:06.573Z,24.10
2018-04-01T00:43:33.628Z,24.00
2018-04-01T00:46:00.654Z,24.00
2018-04-01T00:48:27.690Z,25.70
2018-04-01T00:50:54.747Z,23.35
2018-04-01T00:53:21.802Z,23.73
2018-04-01T00:55:48.755Z,24.90
2018-04-01T00:58:15.789Z,25.95
2018-04-01T01:00:42.818Z,24.12
2018-04-01T01:03:09.770Z,24.50
2018-04-01T01:05:36.715Z,24.20
2018-04-01T01:08:03.662Z,25.17
2018-04-01T01:10:30.733Z,24.42
2018-04-01T01:12:57.798Z,23.12
2018-04-01T01:15:25.540Z,23.10
2018-04-01T01:17:52.491Z,24.33
2018-04-01T01:20:19.435Z,23.60
2018-04-01T01:22:46.378Z,24.10
2018-04-01T01:25:13.322Z,23.47
2018-04-01T01:27:40.321Z,23.00
2018-04-01T01:30:07.251Z,24.95
2018-04-01T01:32:34.207Z,22.50
2018-04-01T01:35:01.150Z,23.65
2018-04-01T01:37:28.130Z,24.55
2018-04-01T01:39:55.094Z,24.73
2018-04-01T01:42:22.114Z,26.00
2018-04-01T01:44:49.190Z,26.87
2018-04-01T01:47:17.046Z,26.60
2018-04-01T01:49:44.806Z,24.92
2018-04-01T01:52:11.776Z,27.83
2018-04-01T01:54:39.490Z,28.50
2018-04-01T01:57:06.437Z,26.85
2018-04-01T01:59:33.407Z,28.83
2018-04-01T02:02:00.341Z,27.85
2018-04-01T02:04:27.294Z,29.45
2018-04-01T02:06:54.345Z,29.17
2018-04-01T02:09:22.829Z,29.95
2018-04-01T02:11:49.772Z,29.80
2018-04-01T02:14:16.743Z,29.10
2018-04-01T02:16:44.445Z,30.88
2018-04-01T02:19:21.671Z,30.05
2018-04-01T02:21:48.617Z,32.30
2018-04-01T02:24:15.923Z,31.75
2018-04-01T02:26:42.858Z,31.60
2018-04-01T02:29:09.838Z,30.92
2018-04-01T02:31:36.998Z,31.15
2018-04-01T02:34:03.964Z,29.33
2018-04-01T02:36:30.979Z,29.15
2018-04-01T02:38:58.032Z,28.55
2018-04-01T02:41:25.050Z,28.25
2018-04-01T02:43:52.061Z,27.92
2018-04-01T02:46:19.814Z,26.90
2018-04-01T02:48:46.831Z,28.27
2018-04-01T02:51:13.771Z,27.10
2018-04-01T02:53:40.824Z,27.17
2018-04-01T02:56:07.776Z,25.88
2018-04-01T02:58:34.815Z,27.37
2018-04-01T03:01:01.776Z,26.60
2018-04-01T03:03:28.740Z,24.45
2018-04-01T03:05:56.454Z,25.23
2018-04-01T03:08:23.403Z,24.90
2018-04-01T03:10:50.350Z,24.77
2018-04-01T03:13:17.306Z,24.52
2018-04-01T03:15:44.334Z,25.60
2018-04-01T03:18:11.392Z,25.87
2018-04-01T03:20:38.360Z,23.92
2018-04-01T03:23:05.318Z,25.08
2018-04-01T03:25:33.026Z,23.33
2018-04-01T03:28:00.091Z,23.52
2018-04-01T03:30:27.043Z,24.80
2018-04-01T03:32:53.989Z,24.48
2018-04-01T03:35:21.018Z,24.33
2018-04-01T03:37:47.966Z,25.27
2018-04-01T03:40:14.922Z,24.52
2018-04-01T03:42:41.970Z,24.25
2018-04-01T03:45:09.001Z,22.60
2018-04-01T03:47:35.947Z,25.80
2018-04-01T03:50:02.891Z,24.37
2018-04-01T03:52:29.942Z,24.58
2018-04-01T03:54:56.986Z,25.95
2018-04-01T03:57:23.933Z,23.98
2018-04-01T03:59:50.873Z,23.70
2018-04-01T04:02:18.027Z,23.87
2018-04-01T04:04:44.966Z,23.40
2018-04-01T04:07:11.996Z,22.85
2018-04-01T04:09:38.925Z,24.20
2018-04-01T04:12:05.879Z,23.97
2018-04-01T04:14:32.825Z,22.37
2018-04-01T04:16:59.774Z,23.12
2018-04-01T04:19:26.735Z,23.02
2018-04-01T04:21:53.682Z,23.55
2018-04-01T04:24:20.625Z,22.27
2018-04-01T04:26:47.575Z,22.60
2018-04-01T04:29:14.514Z,22.65
2018-04-01T04:31:41.468Z,22.98
2018-04-01T04:34:08.406Z,22.70
2018-04-01T04:36:35.430Z,23.40
2018-04-01T04:39:02.354Z,23.45
2018-04-01T04:41:29.314Z,22.17
2018-04-01T04:43:56.265Z,22.87
2018-04-01T04:46:23.207Z,22.50
2018-04-01T04:48:50.159Z,21.58
2018-04-01T04:51:17.113Z,22.17
2018-04-01T04:53:44.101Z,21.85
2018-04-01T04:56:11.026Z,21.48
2018-04-01T04:58:37.979Z,22.00
2018-04-01T05:01:05.017Z,22.85
2018-04-01T05:03:31.962Z,21.00
2018-04-01T05:06:00.422Z,23.02
2018-04-01T05:08:27.422Z,21.60
2018-04-01T05:10:54.333Z,21.48
2018-04-01T05:13:21.644Z,22.08
2018-04-01T05:15:48.615Z,22.50
2018-04-01T05:18:15.572Z,21.67
2018-04-01T05:20:44.117Z,21.73
2018-04-01T05:23:11.050Z,22.33
2018-04-01T05:25:38.897Z,21.58
2018-04-01T05:28:06.729Z,21.02
2018-04-01T05:30:33.750Z,22.27
2018-04-01T05:33:00.718Z,21.73
2018-04-01T05:35:27.666Z,21.90
2018-04-01T05:37:54.743Z,23.02
2018-04-01T05:40:22.476Z,21.53
2018-04-01T05:42:49.426Z,22.13
2018-04-01T05:45:16.378Z,21.77
2018-04-01T05:47:43.385Z,21.77
2018-04-01T05:50:10.338Z,22.13
2018-04-01T05:52:37.290Z,22.27
2018-04-01T05:55:04.238Z,22.42
2018-04-01T05:57:31.277Z,21.98
2018-04-01T05:59:58.315Z,19.62
2018-04-01T06:02:25.357Z,19.70
2018-04-01T06:04:52.393Z,20.90
2018-04-01T06:07:19.328Z,19.45
2018-04-01T06:09:46.294Z,19.52
2018-04-01T06:12:13.263Z,19.80
2018-04-01T06:14:40.286Z,19.00
2018-04-01T06:17:07.256Z,19.02
2018-04-01T06:19:34.281Z,18.58
2018-04-01T06:22:01.227Z,19.20
2018-04-01T06:24:28.182Z,17.83
2018-04-01T06:26:55.200Z,20.00
2018-04-01T06:29:22.270Z,18.27
2018-04-01T06:31:49.426Z,18.25
2018-04-01T06:34:16.376Z,18.48
2018-04-01T06:36:43.360Z,19.50
2018-04-01T06:39:10.354Z,17.42
2018-04-01T06:41:37.347Z,17.33
2018-04-01T06:44:05.042Z,17.48
2018-04-01T06:46:32.084Z,18.90
2018-04-01T06:48:59.165Z,19.45
2018-04-01T06:51:26.379Z,17.77
2018-04-01T06:53:53.337Z,19.30
2018-04-01T06:56:20.393Z,18.80
2018-04-01T06:58:47.442Z,18.10
2018-04-01T07:01:14.446Z,17.57
2018-04-01T07:03:41.382Z,17.90
2018-04-01T07:06:08.349Z,18.80
2018-04-01T07:08:35.348Z,18.85
2018-04-01T07:11:02.355Z,17.55
2018-04-01T07:13:29.423Z,16.03
2018-04-01T07:15:56.431Z,17.90
2018-04-01T07:18:23.486Z,17.12
2018-04-01T07:20:50.454Z,16.30
2018-04-01T07:23:17.618Z,16.45
2018-04-01T07:25:44.647Z,17.33
2018-04-01T07:28:11.606Z,17.48
2018-04-01T07:30:39.394Z,17.25
2018-04-01T07:33:07.139Z,16.30
2018-04-01T07:35:34.098Z,16.30
2018-04-01T07:38:01.129Z,16.40
2018-04-01T07:40:28.087Z,16.90
2018-04-01T07:42:55.103Z,16.70
2018-04-01T07:45:22.179Z,16.85
2018-04-01T07:47:49.172Z,16.70
2018-04-01T07:50:16.141Z,16.85
2018-04-01T07:52:43.094Z,16.87
2018-04-01T07:55:10.109Z,15.83
2018-04-01T07:57:37.109Z,16.37
2018-04-01T08:00:04.054Z,17.23
2018-04-01T08:02:31.022Z,16.02
2018-04-01T08:04:57.957Z,16.73
2018-04-01T08:07:26.629Z,16.20
2018-04-01T08:09:53.569Z,16.53
2018-04-01T08:12:20.518Z,15.75
2018-04-01T08:14:48.265Z,15.87
2018-04-01T08:17:15.299Z,14.05
2018-04-01T08:19:42.316Z,15.70
2018-04-01T08:22:09.373Z,15.57
2018-04-01T08:24:36.302Z,15.73
2018-04-01T08:27:03.723Z,14.90
2018-04-01T08:29:31.458Z,15.10
2018-04-01T08:31:58.410Z,14.50
2018-04-01T08:34:25.479Z,15.43
2018-04-01T08:36:53.186Z,13.80
2018-04-01T08:39:20.185Z,14.73
2018-04-01T08:41:47.273Z,14.87
2018-04-01T08:44:14.256Z,12.90
2018-04-01T08:46:41.202Z,13.85
2018-04-01T08:49:08.167Z,13.80
2018-04-01T08:51:35.973Z,12.65
2018-04-01T08:54:03.018Z,12.20
2018-04-01T08:56:29.938Z,10.60
2018-04-01T08:58:57.729Z,11.30
2018-04-01T09:01:24.657Z,12.18
2018-04-01T09:03:51.641Z,12.52
2018-04-01T09:06:18.685Z,12.85
2018-04-01T09:08:45.729Z,12.30
2018-04-01T09:11:12.678Z,11.95
2018-04-01T09:13:39.663Z,13.00
2018-04-01T09:16:07.365Z,12.55
2018-04-01T09:18:34.327Z,12.55
2018-04-01T09:21:01.362Z,14.43
2018-04-01T09:23:28.286Z,14.90
2018-04-01T09:25:55.258Z,15.88
2018-04-01T09:28:22.194Z,14.27
2018-04-01T09:30:49.222Z,15.15
2018-04-01T09:33:16.207Z,15.77
2018-04-01T09:35:43.226Z,15.50
2018-04-01T09:38:10.172Z,15.30
2018-04-01T09:40:37.122Z,15.05
2018-04-01T09:43:04.083Z,15.55
2018-04-01T09:45:31.070Z,14.38
2018-04-01T09:47:58.774Z,14.45
2018-04-01T09:50:25.734Z,14.13
2018-04-01T09:52:52.678Z,15.45
2018-04-01T09:55:19.804Z,14.20
2018-04-01T09:57:46.753Z,14.52
2018-04-01T10:00:28.604Z,13.73
2018-04-01T10:02:56.795Z,11.82
2018-04-01T10:05:24.383Z,9.70
2018-04-01T10:07:51.809Z,8.90
2018-04-01T10:10:19.306Z,7.30
2018-04-01T10:12:46.770Z,8.15
2018-04-01T10:15:14.307Z,8.25
2018-04-01T10:17:41.763Z,8.38
2018-04-01T10:20:09.220Z,8.63
2018-04-01T10:22:36.633Z,9.02
2018-04-01T10:25:04.863Z,9.02
2018-04-01T10:27:32.294Z,7.90
2018-04-01T10:29:59.864Z,6.57
2018-04-01T10:32:27.275Z,7.10
2018-04-01T10:34:54.710Z,7.00
2018-04-01T10:37:22.146Z,8.00
2018-04-01T10:39:49.582Z,8.57
2018-04-01T10:42:17.006Z,9.60
2018-04-01T10:44:45.210Z,10.00
2018-04-01T10:47:12.776Z,9.40
2018-04-01T10:49:40.188Z,8.00
2018-04-01T10:52:08.507Z,9.25
2018-04-01T10:54:35.555Z,8.13
2018-04-01T10:57:02.502Z,10.02
2018-04-01T10:59:29.430Z,9.98
2018-04-01T11:01:56.418Z,7.40
2018-04-01T11:04:23.466Z,7.05
2018-04-01T11:06:50.481Z,7.72
2018-04-01T11:09:17.408Z,7.80
2018-04-01T11:11:44.355Z,9.05
2018-04-01T11:14:11.312Z,8.63
2018-04-01T11:16:38.262Z,9.93
2018-04-01T11:19:05.219Z,10.00
2018-04-01T11:21:32.269Z,10.30
2018-04-01T11:23:59.210Z,10.25
2018-04-01T11:26:26.158Z,10.55
2018-04-01T11:28:53.213Z,12.25
2018-04-01T11:31:20.255Z,13.67
2018-04-01T11:33:47.206Z,13.13
2018-04-01T11:36:14.152Z,13.60
2018-04-01T11:38:41.192Z,13.75
2018-04-01T11:41:08.248Z,13.70
2018-04-01T11:43:35.306Z,14.68
2018-04-01T11:46:02.262Z,14.43
2018-04-01T11:48:29.221Z,13.98
2018-04-01T11:50:56.970Z,15.00
2018-04-01T11:53:23.994Z,13.45
2018-04-01T11:55:51.013Z,13.83
2018-04-01T11:58:17.958Z,14.52
2018-04-01T12:00:44.937Z,13.60
2018-04-01T12:03:11.946Z,12.65
2018-04-01T12:05:38.925Z,13.77
2018-04-01T12:08:06.041Z,12.93
2018-04-01T12:10:32.985Z,13.02
2018-04-01T12:12:59.933Z,13.20
2018-04-01T12:15:26.881Z,12.65
2018-04-01T12:17:53.857Z,13.27
2018-04-01T12:20:20.890Z,13.00
2018-04-01T12:22:47.931Z,13.02
2018-04-01T12:25:15.001Z,12.65
2018-04-01T12:27:42.015Z,12.50
2018-04-01T12:30:08.946Z,12.40
2018-04-01T12:32:36.427Z,12.43
2018-04-01T12:35:03.378Z,12.00
2018-04-01T12:37:30.452Z,13.00
2018-04-01T12:39:57.392Z,12.73
2018-04-01T12:42:24.376Z,12.73
2018-04-01T12:44:51.466Z,14.00
2018-04-01T12:47:18.518Z,12.50
2018-04-01T12:49:45.558Z,12.55
2018-04-01T12:52:12.508Z,12.98
2018-04-01T12:54:39.537Z,13.50
2018-04-01T12:57:06.491Z,12.75
2018-04-01T12:59:33.441Z,12.02
2018-04-01T13:02:00.389Z,12.23
2018-04-01T13:04:27.407Z,12.20
2018-04-01T13:06:54.377Z,11.35
2018-04-01T13:09:21.414Z,11.32
2018-04-01T13:11:48.422Z,10.70
2018-04-01T13:14:15.379Z,9.85
2018-04-01T13:16:42.327Z,9.95
2018-04-01T13:19:09.493Z,10.25
2018-04-01T13:21:36.461Z,10.23
2018-04-01T13:24:03.408Z,10.63
2018-04-01T13:26:30.354Z,11.25
2018-04-01T13:28:57.294Z,9.98
2018-04-01T13:31:24.669Z,10.57
2018-04-01T13:33:51.778Z,11.12
2018-04-01T13:36:18.812Z,10.07
2018-04-01T13:38:45.747Z,9.68
2018-04-01T13:41:12.700Z,10.60
2018-04-01T13:43:39.639Z,10.15
2018-04-01T13:46:06.602Z,11.00
2018-04-01T13:48:33.689Z,10.43
2018-04-01T13:51:01.432Z,11.07
2018-04-01T13:53:28.387Z,10.70
2018-04-01T13:55:55.348Z,12.20
2018-04-01T13:58:22.280Z,10.38
2018-04-01T14:00:49.218Z,11.50
2018-04-01T14:03:16.279Z,11.50
2018-04-01T14:05:43.271Z,11.63
2018-04-01T14:08:10.216Z,12.27
2018-04-01T14:10:37.182Z,12.63
2018-04-01T14:13:04.131Z,12.35
2018-04-01T14:15:31.170Z,12.82
2018-04-01T14:17:58.123Z,13.73
2018-04-01T14:20:25.066Z,13.48
2018-04-01T14:22:52.109Z,13.82
2018-04-01T14:25:19.066Z,14.30
2018-04-01T14:27:46.040Z,13.30
2018-04-01T14:30:12.963Z,13.98
2018-04-01T14:32:39.897Z,13.45
2018-04-01T14:35:06.856Z,13.00
2018-04-01T14:37:33.801Z,12.85
2018-04-01T14:40:00.806Z,10.93
2018-04-01T14:42:27.763Z,10.70
2018-04-01T14:44:54.708Z,11.73
2018-04-01T14:47:21.661Z,10.50
2018-04-01T14:49:48.606Z,10.18
2018-04-01T14:52:15.656Z,10.45
2018-04-01T14:54:42.673Z,9.73
2018-04-01T14:57:09.729Z,11.05
2018-04-01T14:59:36.766Z,9.68
2018-04-01T15:02:03.711Z,10.27
2018-04-01T15:04:30.659Z,9.65
2018-04-01T15:06:58.728Z,9.55
2018-04-01T15:09:25.796Z,8.32
2018-04-01T15:11:52.742Z,8.20
2018-04-01T15:14:19.752Z,8.27
2018-04-01T15:16:47.146Z,8.20
2018-04-01T15:19:15.007Z,7.25
2018-04-01T15:21:41.953Z,8.02
2018-04-01T15:24:08.954Z,7.10
2018-04-01T15:26:36.024Z,7.17
2018-04-01T15:29:02.953Z,7.05
2018-04-01T15:31:29.945Z,7.82
2018-04-01T15:33:56.886Z,7.97
2018-04-01T15:36:24.113Z,7.53
2018-04-01T15:38:51.041Z,8.65
2018-04-01T15:41:17.999Z,8.48
2018-04-01T15:43:45.798Z,8.18
2018-04-01T15:46:12.782Z,9.30
2018-04-01T15:48:40.658Z,9.60
2018-04-01T15:51:07.686Z,9.02
2018-04-01T15:53:35.390Z,9.30
2018-04-01T15:56:02.337Z,8.80
2018-04-01T15:58:29.294Z,9.82
2018-04-01T16:00:56.342Z,8.30
2018-04-01T16:03:23.383Z,8.35
2018-04-01T16:05:50.326Z,8.52
2018-04-01T16:08:17.400Z,7.80
2018-04-01T16:10:44.430Z,7.95
2018-04-01T16:13:11.394Z,7.47
2018-04-01T16:15:38.414Z,7.93
2018-04-01T16:18:05.370Z,8.18
2018-04-01T16:20:32.305Z,8.20
2018-04-01T16:22:59.351Z,7.90
2018-04-01T16:25:26.403Z,7.12
2018-04-01T16:27:53.386Z,8.48
2018-04-01T16:30:21.098Z,8.60
2018-04-01T16:32:48.046Z,8.40
2018-04-01T16:35:15.035Z,9.90
2018-04-01T16:37:41.989Z,7.65
2018-04-01T16:40:09.714Z,7.80
2018-04-01T16:42:36.835Z,8.60
2018-04-01T16:45:03.887Z,13.93
2018-04-01T16:47:30.821Z,9.18
2018-04-01T16:49:57.806Z,8.90
2018-04-01T16:52:24.781Z,9.48
2018-04-01T16:54:52.503Z,10.57
2018-04-01T16:57:19.493Z,11.55
2018-04-01T16:59:46.466Z,7.80
2018-04-01T17:02:13.441Z,7.68
2018-04-01T17:04:40.378Z,8.97
2018-04-01T17:07:07.330Z,7.57
2018-04-01T17:09:34.537Z,8.15
2018-04-01T17:12:01.508Z,9.85
2018-04-01T17:14:28.582Z,7.70
2018-04-01T17:16:55.535Z,7.87
2018-04-01T17:19:22.485Z,9.88
2018-04-01T17:21:49.420Z,8.60
2018-04-01T17:24:16.433Z,8.95
2018-04-01T17:26:43.481Z,9.10
2018-04-01T17:29:10.446Z,9.57
2018-04-01T17:31:37.399Z,8.05
2018-04-01T17:34:04.339Z,11.38
2018-04-01T17:36:31.363Z,10.25
2018-04-01T17:38:58.301Z,11.25
2018-04-01T17:41:25.257Z,9.00
2018-04-01T17:43:52.298Z,10.82
2018-04-01T17:46:19.231Z,10.15
2018-04-01T17:48:46.170Z,11.30
2018-04-01T17:51:13.140Z,8.90
2018-04-01T17:53:40.180Z,9.40
2018-04-01T17:56:07.139Z,11.07
2018-04-01T17:58:34.089Z,9.50
2018-04-01T18:01:01.027Z,11.07
2018-04-01T18:03:27.998Z,10.63
2018-04-01T18:05:54.996Z,9.48
2018-04-01T18:08:21.948Z,11.70
2018-04-01T18:10:48.885Z,9.38
2018-04-01T18:13:15.838Z,10.82
2018-04-01T18:15:42.779Z,10.98
2018-04-01T18:18:09.830Z,11.63
2018-04-01T18:20:36.764Z,11.18
2018-04-01T18:23:03.727Z,11.12
2018-04-01T18:25:30.666Z,11.63
2018-04-01T18:27:57.616Z,13.00
2018-04-01T18:30:24.645Z,11.43
2018-04-01T18:32:51.603Z,10.93
2018-04-01T18:35:18.608Z,13.23
2018-04-01T18:37:45.534Z,11.20
2018-04-01T18:40:12.502Z,12.10
2018-04-01T18:42:40.296Z,11.30
2018-04-01T18:45:07.251Z,15.00
2018-04-01T18:47:34.208Z,17.83
2018-04-01T18:50:01.334Z,14.20
2018-04-01T18:52:28.332Z,17.98
2018-04-01T18:54:55.323Z,18.30
2018-04-01T18:57:22.250Z,22.33
2018-04-01T18:59:49.238Z,21.63
2018-04-01T19:02:16.209Z,26.33
2018-04-01T19:04:43.225Z,21.92
2018-04-01T19:07:10.302Z,23.48
2018-04-01T19:09:37.239Z,24.75
2018-04-01T19:12:04.228Z,27.15
2018-04-01T19:14:31.228Z,26.52
2018-04-01T19:17:07.336Z,23.37
2018-04-01T19:19:34.768Z,24.08
2018-04-01T19:22:02.200Z,21.50
2018-04-01T19:24:29.690Z,20.83
2018-04-01T19:26:57.260Z,21.77
2018-04-01T19:29:24.673Z,22.55
2018-04-01T19:31:52.180Z,25.55
2018-04-01T19:34:19.759Z,25.53
2018-04-01T19:36:47.282Z,23.98
2018-04-01T19:39:14.741Z,30.00
2018-04-01T19:41:42.314Z,28.27
2018-04-01T19:44:09.860Z,29.02
2018-04-01T19:46:37.312Z,32.10
2018-04-01T19:49:04.762Z,32.00
2018-04-01T19:51:32.198Z,34.25
2018-04-01T19:53:59.790Z,33.60
2018-04-01T19:56:27.230Z,39.43
2018-04-01T19:58:55.814Z,34.43
2018-04-01T20:01:23.258Z,39.20
2018-04-01T20:03:50.711Z,45.25
2018-04-01T20:06:18.193Z,53.28
2018-04-01T20:08:45.671Z,54.17
2018-04-01T20:11:13.114Z,61.85
2018-04-01T20:13:40.617Z,60.33
2018-04-01T20:16:08.199Z,59.78
2018-04-01T20:18:35.669Z,63.28
2018-04-01T20:21:03.134Z,58.67
2018-04-01T20:23:30.567Z,58.03
2018-04-01T20:25:58.025Z,59.73
2018-04-01T20:28:25.493Z,57.00
2018-04-01T20:30:52.958Z,52.65
2018-04-01T20:33:20.406Z,53.15
2018-04-01T20:35:47.852Z,49.47
2018-04-01T20:38:15.310Z,49.70
2018-04-01T20:40:42.733Z,48.50
2018-04-01T20:43:10.935Z,43.85
2018-04-01T20:45:38.396Z,44.00
2018-04-01T20:48:05.858Z,43.25
2018-04-01T20:50:33.328Z,42.28
2018-04-01T20:53:00.785Z,41.60
2018-04-01T20:55:28.259Z,38.40
2018-04-01T20:57:55.681Z,38.20
2018-04-01T21:00:23.124Z,33.47
2018-04-01T21:02:50.561Z,31.37
2018-04-01T21:05:18.026Z,32.25
2018-04-01T21:07:45.559Z,28.80
2018-04-01T21:10:13.114Z,31.65
2018-04-01T21:12:41.538Z,27.10
2018-04-01T21:15:09.035Z,27.93
2018-04-01T21:17:36.591Z,27.10
2018-04-01T21:20:04.047Z,27.37
2018-04-01T21:22:31.525Z,27.60
2018-04-01T21:24:58.966Z,30.02
2018-04-01T21:27:26.423Z,23.10
2018-04-01T21:29:53.850Z,23.35
2018-04-01T21:32:21.406Z,24.08
2018-04-01T21:34:48.981Z,22.75
2018-04-01T21:37:16.413Z,22.87
2018-04-01T21:39:43.867Z,22.20
2018-04-01T21:42:11.331Z,23.27
2018-04-01T21:44:38.815Z,25.05
2018-04-01T21:47:06.272Z,26.17
2018-04-01T21:49:34.463Z,23.02
2018-04-01T21:52:01.920Z,24.73
2018-04-01T21:54:29.378Z,22.35
2018-04-01T21:56:56.859Z,23.50
2018-04-01T21:59:24.326Z,23.75
2018-04-01T22:01:51.773Z,25.70
2018-04-01T22:04:19.989Z,23.60
2018-04-01T22:06:47.426Z,24.12
2018-04-01T22:09:14.873Z,26.85
2018-04-01T22:11:42.324Z,23.17
2018-04-01T22:14:09.762Z,21.83
2018-04-01T22:16:37.219Z,22.87
2018-04-01T22:19:04.710Z,25.08
2018-04-01T22:21:32.176Z,23.70
2018-04-01T22:23:59.599Z,24.65
2018-04-01T22:26:27.044Z,23.50
2018-04-01T22:28:55.250Z,26.42
2018-04-01T22:31:22.712Z,27.70
2018-04-01T22:33:50.194Z,28.45
2018-04-01T22:36:17.625Z,30.52
2018-04-01T22:38:45.076Z,30.25
2018-04-01T22:41:12.549Z,34.40
2018-04-01T22:43:40.007Z,30.90
2018-04-01T22:46:07.446Z,34.75
2018-04-01T22:48:34.885Z,35.75
2018-04-01T22:51:02.357Z,34.42
2018-04-01T22:53:29.902Z,37.08
2018-04-01T22:55:57.329Z,35.25
2018-04-01T22:58:25.542Z,36.08
2018-04-01T23:00:53.010Z,36.80
2018-04-01T23:03:20.417Z,35.53
2018-04-01T23:05:48.735Z,36.38
2018-04-01T23:08:16.150Z,34.10
2018-04-01T23:10:44.393Z,37.03
2018-04-01T23:13:11.833Z,35.00
2018-04-01T23:15:39.377Z,32.45
2018-04-01T23:18:06.855Z,32.63
2018-04-01T23:20:34.344Z,33.38
2018-04-01T23:23:01.766Z,32.30
2018-04-01T23:25:29.846Z,31.65
2018-04-01T23:27:57.403Z,30.88
2018-04-01T23:30:24.858Z,32.28
2018-04-01T23:32:52.298Z,31.92
2018-04-01T23:35:19.766Z,30.60
2018-04-01T23:37:47.210Z,31.27
2018-04-01T23:40:14.656Z,30.83
2018-04-01T23:42:42.140Z,30.33
2018-04-01T23:45:09.599Z,29.60
2018-04-01T23:47:37.133Z,29.30
2018-04-01T23:50:04.578Z,28.70
2018-04-01T23:52:32.062Z,30.20
2018-04-01T23:54:59.522Z,29.20
2018-04-01T23:57:26.954Z,29.67
2018-04-01T23:59:54.444Z,28.65
